Blanch, NC (27212)

10:25 AM EDT am 23. Oktober 2014 (GMT -0400)
KVARINGG5 | Change Station
CLOSE
Current Station
Persönliche Wetterstationen
Location: Ringgold, VA
Höhe: 500 ft
Wetterstationen in der Umgebung

Höhe 500 ft 36.58 °N, 79.27 °W | Updated 40 seconds ago

Heiter
Heiter
56.9 °F
gefühlte 56.9 °F
N
2.0
Wind Wechselnd Wind aus West
Gusts 4.0 mph

Heute
Max. -- | schwach -- °F
--% Regenrisiko
Gestern
Max. -- | schwach -- °F
Precip. -- inch
7:31 AM 6:30 PM
Letztes Viertel, 0% visible
Druck 30.01 inch
Sichtweite 10.0 Meilen
Wolken Heiter
Taupunkt 46 °F
Feuchtigkeit 67%
Regen 0.00 inch
Schneehöhe Nicht verfügbar..
UV 2 von 12
Pollen 2.50 von 12
Ozon Gut
PM2.5 Gut
Flu Activity Sporadic
METAR KDAN 231353Z AUTO 32008G17KT 270V350 10SM CLR 14/04 A3003 RMK AO2 SLP163 T01390044

More Conditions Fewer Conditions

Druck 30.01 inch
Sichtweite 10.0 Meilen
Wolken Heiter
Taupunkt 46 °F
Feuchtigkeit 67%
Regen 0.00 inch
Schneehöhe Nicht verfügbar..
UV 2 von 12
Pollen 2.50 von 12
Ozon Gut
PM2.5 Gut
Flu Activity Sporadic
METAR KDAN 231353Z AUTO 32008G17KT 270V350 10SM CLR 14/04 A3003 RMK AO2 SLP163 T01390044

More Conditions Fewer Conditions

10-Day Weather Forecast

Almanac

Astronomie

Oct. 23, 2014 Aufgang Untergang
Genaue Zeit 07:31 EDT 18:30 EDT
Bürgerliche Dämmerung 07:05 EDT 18:56 EDT
Nautische Dämmerung 06:35 EDT 19:27 EDT
Astronomische Dämmerung 06:05 EDT 19:56 EDT
Mond 07:10 EDT 18:31 EDT
Länge des sichtbaren Lichts 11h 51m
Tageslänge
10h 58m
Tomorrow will be 2m 10s shorter.
Letztes Viertel, 0% of the Moon is Illuminated
Heute
Letztes Viertel
Okt 23
Neu
Okt 30
Erstes Viertel
Nov 6
Vollmond
Nov 14
Letztes Viertel

Heutige Rekorde

State Highs State Lows

Community

WunderPhotos

Upload Photos

1,764,265 Fotos hochgeladen!

Nearby

Luftqualität

  Luftqualität LQ Index Schadstoff
Gestern Gut
OZONE
Gestern Gut
PM2.5
Aktuell Gut
PM2.5
Aktuell Gut
OZONE
Donnerstag Gut
PM2.5
Donnerstag Gut
OZONE
Freitag Gut
PM2.5
Freitag Gut
OZONE
Samstag Gut
PM2.5
Samstag Gut
OZONE
Sonntag Gut
PM2.5
Sonntag Gut
OZONE

Schneehöhe

Station Depth Höhe
Kein Neuschnee gemeldet.

Erdbebenaktivität

Stadt Distance Mag. Time & Date
No recent earthquake activity has been reported nearby.
Minimum magnitude displayed is 2.5.

küstennahe Wassertemperaturen

Ort Temperatur
Kein Stationsbericht

Wetterstationen in der Umgebung